createdAt,value
2023-06-07T00:00:00.872Z,1.1
2023-06-07T00:01:00.568Z,1.1
2023-06-07T00:02:00.634Z,1.1
2023-06-07T00:03:00.726Z,1.1
2023-06-07T00:04:00.699Z,1.1
2023-06-07T00:05:00.643Z,1.1
2023-06-07T00:06:00.582Z,1.1
2023-06-07T00:07:00.588Z,1.1
2023-06-07T00:08:00.587Z,1.1
2023-06-07T00:09:00.579Z,1.1
2023-06-07T00:10:01.007Z,1.1
2023-06-07T00:11:00.575Z,1.1
2023-06-07T00:12:00.587Z,1.1
2023-06-07T00:13:00.575Z,1.1
2023-06-07T00:14:00.571Z,1.1
2023-06-07T00:15:01.437Z,1.1
2023-06-07T00:16:00.601Z,1.1
2023-06-07T00:17:00.630Z,1.1
2023-06-07T00:18:00.730Z,1.1
2023-06-07T00:19:00.601Z,1.1
2023-06-07T00:20:00.622Z,1.1
2023-06-07T00:21:00.584Z,1.1
2023-06-07T00:22:00.615Z,1.1
2023-06-07T00:23:00.586Z,1.1
2023-06-07T00:24:00.639Z,1.1
2023-06-07T00:25:00.672Z,1.1
2023-06-07T00:26:00.589Z,1.1
2023-06-07T00:27:00.592Z,1.1
2023-06-07T00:28:00.608Z,1.1
2023-06-07T00:29:00.591Z,1.1
2023-06-07T00:30:00.696Z,1.1
2023-06-07T00:31:00.693Z,1.1
2023-06-07T00:32:00.601Z,1.1
2023-06-07T00:33:00.665Z,1.1
2023-06-07T00:34:00.610Z,1.1
2023-06-07T00:35:00.605Z,1.1
2023-06-07T00:36:00.616Z,1.1
2023-06-07T00:37:00.618Z,1.1
2023-06-07T00:38:00.607Z,1.1
2023-06-07T00:39:00.601Z,1.1
2023-06-07T00:40:01.160Z,1.1
2023-06-07T00:41:00.606Z,1.1
2023-06-07T00:42:00.621Z,1.1
2023-06-07T00:43:00.616Z,1.1
2023-06-07T00:44:00.617Z,1.1
2023-06-07T00:45:00.623Z,1.1
2023-06-07T00:46:00.613Z,1.1
2023-06-07T00:47:00.615Z,1.1
2023-06-07T00:48:00.681Z,1.1
2023-06-07T00:49:00.668Z,1.1
2023-06-07T00:50:00.796Z,1.1
2023-06-07T00:51:00.707Z,1.1
2023-06-07T00:52:00.625Z,1.1
2023-06-07T00:53:00.615Z,1.1
2023-06-07T00:54:00.655Z,1.1
2023-06-07T00:55:00.656Z,1.1
2023-06-07T00:56:00.638Z,1.1
2023-06-07T00:57:00.631Z,1.1
2023-06-07T00:58:00.634Z,1.1
2023-06-07T00:59:00.653Z,1.1
2023-06-07T01:00:00.744Z,1.1
2023-06-07T01:01:00.634Z,1.1
2023-06-07T01:02:00.690Z,1.1
2023-06-07T01:03:00.756Z,1.1
2023-06-07T01:04:00.852Z,1.1
2023-06-07T01:05:00.652Z,1.1
2023-06-07T01:06:00.633Z,1.1
2023-06-07T01:07:00.638Z,1.1
2023-06-07T01:08:00.635Z,1.1
2023-06-07T01:09:00.638Z,1.1
2023-06-07T01:10:00.762Z,1.1
2023-06-07T01:11:00.652Z,1.1
2023-06-07T01:12:00.640Z,1.1
2023-06-07T01:13:00.669Z,1.1
2023-06-07T01:14:00.639Z,1.1
2023-06-07T01:15:00.655Z,1.1
2023-06-07T01:16:00.702Z,1.1
2023-06-07T01:17:00.643Z,1.1
2023-06-07T01:18:00.728Z,1.1
2023-06-07T01:19:00.643Z,1.1
2023-06-07T01:20:01.353Z,1.1
2023-06-07T01:21:00.691Z,1.1
2023-06-07T01:22:00.652Z,1.1
2023-06-07T01:23:00.663Z,1.1
2023-06-07T01:24:00.759Z,1.1
2023-06-07T01:25:00.663Z,1.1
2023-06-07T01:26:00.665Z,1.1
2023-06-07T01:27:00.670Z,1.1
2023-06-07T01:28:00.660Z,1.1
2023-06-07T01:29:00.658Z,1.1
2023-06-07T01:30:01.229Z,1.1
2023-06-07T01:31:00.668Z,1.1
2023-06-07T01:32:00.719Z,1.1
2023-06-07T01:33:00.690Z,1.1
2023-06-07T01:34:00.658Z,1.1
2023-06-07T01:35:00.676Z,1.1
2023-06-07T01:36:00.667Z,1.1
2023-06-07T01:37:00.676Z,1.1
2023-06-07T01:38:00.664Z,1.1
2023-06-07T01:39:00.681Z,1.1
2023-06-07T01:40:01.002Z,1.1
2023-06-07T01:41:00.681Z,1.1
2023-06-07T01:42:00.685Z,1.1
2023-06-07T01:43:00.683Z,1.1
2023-06-07T01:44:00.685Z,1.1
2023-06-07T01:45:00.702Z,1.1
2023-06-07T01:46:00.702Z,1.1
2023-06-07T01:47:00.671Z,1.1
2023-06-07T01:48:00.717Z,1.1
2023-06-07T01:49:00.677Z,1.1
2023-06-07T01:50:00.846Z,1.1
2023-06-07T01:51:00.686Z,1.1
2023-06-07T01:52:00.685Z,1.1
2023-06-07T01:53:00.682Z,1.1
2023-06-07T01:54:00.692Z,1.1
2023-06-07T01:55:00.751Z,1.1
2023-06-07T01:56:00.710Z,1.1
2023-06-07T01:57:00.682Z,1.1
2023-06-07T01:58:00.693Z,1.1
2023-06-07T01:59:00.703Z,1.1
2023-06-07T02:00:02.311Z,1.1
2023-06-07T02:01:01.854Z,1.1
2023-06-07T02:02:01.838Z,1.1
2023-06-07T02:03:01.883Z,1.1
2023-06-07T02:04:01.905Z,1.1
2023-06-07T02:05:01.834Z,1.1
2023-06-07T02:06:01.839Z,1.1
2023-06-07T02:07:01.843Z,1.1
2023-06-07T02:08:01.871Z,1.1
2023-06-07T02:09:01.839Z,1.1
2023-06-07T02:10:02.276Z,1.1
2023-06-07T02:11:01.850Z,1.1
2023-06-07T02:12:01.849Z,1.1
2023-06-07T02:13:01.842Z,1.1
2023-06-07T02:14:01.868Z,1.1
2023-06-07T02:15:00.409Z,1.1
2023-06-07T02:16:00.420Z,1.1
2023-06-07T02:17:00.417Z,1.1
2023-06-07T02:18:00.448Z,1.1
2023-06-07T02:19:00.404Z,1.1
2023-06-07T02:20:00.479Z,1.1
2023-06-07T02:21:00.400Z,1.1
2023-06-07T02:22:00.419Z,1.1
2023-06-07T02:23:00.425Z,1.1
2023-06-07T02:24:00.438Z,1.1
2023-06-07T02:25:00.402Z,1.1
2023-06-07T02:26:00.408Z,1.1
2023-06-07T02:27:00.408Z,1.1
2023-06-07T02:28:00.412Z,1.1
2023-06-07T02:29:00.411Z,1.1
2023-06-07T02:30:00.479Z,1.1
2023-06-07T02:31:00.491Z,1.1
2023-06-07T02:32:00.411Z,1.1
2023-06-07T02:33:00.465Z,1.1
2023-06-07T02:34:00.432Z,1.1
2023-06-07T02:35:00.421Z,1.1
2023-06-07T02:36:00.417Z,1.1
2023-06-07T02:37:00.428Z,1.1
2023-06-07T02:38:00.423Z,1.1
2023-06-07T02:39:00.422Z,1.1
2023-06-07T02:40:00.694Z,1.1
2023-06-07T02:41:00.430Z,1.1
2023-06-07T02:42:00.442Z,1.1
2023-06-07T02:43:00.429Z,1.1
2023-06-07T02:44:00.429Z,1.1
2023-06-07T02:45:00.428Z,1.1
2023-06-07T02:46:00.430Z,1.1
2023-06-07T02:47:00.434Z,1.1
2023-06-07T02:48:00.467Z,1.1
2023-06-07T02:49:00.440Z,1.1
2023-06-07T02:50:00.660Z,1.1
2023-06-07T02:51:00.438Z,1.1
2023-06-07T02:52:00.434Z,1.1
2023-06-07T02:53:00.438Z,1.1
2023-06-07T02:54:00.448Z,1.1
2023-06-07T02:55:00.461Z,1.1
2023-06-07T02:56:00.442Z,1.1
2023-06-07T02:57:00.437Z,1.2
2023-06-07T02:58:00.443Z,1.4
2023-06-07T02:59:00.454Z,1.7
2023-06-07T03:00:00.467Z,1.9
2023-06-07T03:01:00.483Z,2.2
2023-06-07T03:02:00.545Z,2.5
2023-06-07T03:03:00.529Z,2.9
2023-06-07T03:04:00.442Z,3.3
2023-06-07T03:05:00.449Z,3.8
2023-06-07T03:06:00.445Z,4.4
2023-06-07T03:07:00.457Z,5.1
2023-06-07T03:08:00.449Z,5.9
2023-06-07T03:09:00.474Z,6.8
2023-06-07T03:10:00.770Z,7.7
2023-06-07T03:11:00.456Z,8.8
2023-06-07T03:12:00.458Z,10.1
2023-06-07T03:13:00.465Z,11.5
2023-06-07T03:14:00.451Z,12.9
2023-06-07T03:15:00.454Z,14.6
2023-06-07T03:16:00.473Z,16.4
2023-06-07T03:17:00.512Z,18.5
2023-06-07T03:18:00.473Z,20.6
2023-06-07T03:19:00.492Z,22.9
2023-06-07T03:20:00.467Z,25.3
2023-06-07T03:21:00.476Z,28.1
2023-06-07T03:22:00.468Z,30.9
2023-06-07T03:23:00.472Z,34.5
2023-06-07T03:24:00.526Z,37.9
2023-06-07T03:25:00.485Z,41.2
2023-06-07T03:26:00.496Z,44.8
2023-06-07T03:27:00.483Z,49.3
2023-06-07T03:28:00.477Z,53.6
2023-06-07T03:29:00.503Z,58.3
2023-06-07T03:30:00.493Z,62.7
2023-06-07T03:31:00.509Z,67.3
2023-06-07T03:32:00.503Z,73.2
2023-06-07T03:33:00.552Z,78.6
2023-06-07T03:34:00.481Z,84.5
2023-06-07T03:35:00.495Z,90.8
2023-06-07T03:36:00.513Z,96.4
2023-06-07T03:37:00.488Z,103.5
2023-06-07T03:38:00.482Z,108.6
2023-06-07T03:39:00.505Z,115.3
2023-06-07T03:40:00.491Z,122.4
2023-06-07T03:41:00.490Z,131.5
2023-06-07T03:42:00.486Z,138
2023-06-07T03:43:00.513Z,144.7
2023-06-07T03:44:00.533Z,153.6
2023-06-07T03:45:00.505Z,161.2
2023-06-07T03:46:00.499Z,169.1
2023-06-07T03:47:00.495Z,177.3
2023-06-07T03:48:00.690Z,186
2023-06-07T03:49:00.585Z,192.8
2023-06-07T03:50:00.503Z,202.3
2023-06-07T03:51:00.501Z,212.2
2023-06-07T03:52:00.509Z,219.9
2023-06-07T03:53:00.514Z,228
2023-06-07T03:54:00.515Z,239.2
2023-06-07T03:55:00.534Z,247.9
2023-06-07T03:56:00.505Z,256.9
2023-06-07T03:57:00.543Z,266.3
2023-06-07T03:58:00.524Z,272.8
2023-06-07T03:59:00.544Z,282.7
2023-06-07T04:00:00.540Z,293.1
2023-06-07T04:01:00.515Z,303.8
2023-06-07T04:02:00.533Z,311.1
2023-06-07T04:03:00.603Z,318.7
2023-06-07T04:04:00.695Z,330.3
2023-06-07T04:05:00.639Z,338.3
2023-06-07T04:06:00.541Z,346.5
2023-06-07T04:07:00.521Z,359.1
2023-06-07T04:08:00.763Z,363.5
2023-06-07T04:09:00.708Z,376.7
2023-06-07T04:10:00.523Z,385.9
2023-06-07T04:11:00.517Z,395.2
2023-06-07T04:12:00.520Z,399.9
2023-06-07T04:13:00.517Z,409.6
2023-06-07T04:14:00.515Z,419.6
2023-06-07T04:15:00.531Z,429.7
2023-06-07T04:16:00.620Z,434.9
2023-06-07T04:17:00.556Z,445.4
2023-06-07T04:18:00.573Z,450.8
2023-06-07T04:19:02.327Z,461.7
2023-06-07T04:20:00.551Z,472.9
2023-06-07T04:21:00.558Z,478.5
2023-06-07T04:22:00.560Z,490.1
2023-06-07T04:23:00.528Z,496
2023-06-07T04:24:00.579Z,502
2023-06-07T04:25:00.549Z,514.1
2023-06-07T04:26:00.548Z,520.3
2023-06-07T04:27:00.535Z,526.6
2023-06-07T04:28:00.603Z,532.9
2023-06-07T04:29:00.537Z,539.3
2023-06-07T04:30:00.554Z,552.4
2023-06-07T04:31:00.539Z,559
2023-06-07T04:32:00.577Z,565.7
2023-06-07T04:33:00.584Z,572.5
2023-06-07T04:34:00.548Z,579.4
2023-06-07T04:35:00.558Z,593.4
2023-06-07T04:36:00.544Z,593.4
2023-06-07T04:37:00.564Z,607.8
2023-06-07T04:38:00.540Z,607.8
2023-06-07T04:39:00.550Z,622.5
2023-06-07T04:40:00.587Z,622.5
2023-06-07T04:41:00.557Z,637.6
2023-06-07T04:42:00.629Z,637.6
2023-06-07T04:43:00.546Z,645.3
2023-06-07T04:44:00.551Z,653
2023-06-07T04:45:00.547Z,668.8
2023-06-07T04:46:00.615Z,668.8
2023-06-07T04:47:06.712Z,676.9
2023-06-07T04:48:00.582Z,685.1
2023-06-07T04:49:00.567Z,693.3
2023-06-07T04:50:00.555Z,701.6
2023-06-07T04:51:00.552Z,710.1
2023-06-07T04:52:00.561Z,718.6
2023-06-07T04:53:00.564Z,718.6
2023-06-07T04:54:00.566Z,727.2
2023-06-07T04:55:00.583Z,736
2023-06-07T04:56:00.575Z,744.8
2023-06-07T04:57:00.596Z,753.8
2023-06-07T04:58:00.570Z,753.8
2023-06-07T04:59:00.597Z,762.9
2023-06-07T05:00:00.568Z,772.1
2023-06-07T05:01:00.635Z,772.1
2023-06-07T05:02:00.622Z,781.4
2023-06-07T05:03:00.593Z,790.8
2023-06-07T05:04:00.579Z,790.8
2023-06-07T05:05:00.671Z,800.3
2023-06-07T05:06:00.571Z,809.9
2023-06-07T05:07:00.591Z,809.9
2023-06-07T05:08:00.598Z,829.5
2023-06-07T05:09:00.593Z,829.5
2023-06-07T05:10:00.753Z,839.5
2023-06-07T05:11:00.583Z,849.6
2023-06-07T05:12:00.589Z,849.6
2023-06-07T05:13:00.582Z,849.6
2023-06-07T05:14:00.595Z,859.8
2023-06-07T05:15:00.611Z,870.2
2023-06-07T05:16:00.642Z,870.2
2023-06-07T05:17:00.584Z,870.2
2023-06-07T05:18:00.629Z,880.6
2023-06-07T05:19:00.591Z,891.2
2023-06-07T05:20:00.582Z,901.9
2023-06-07T05:21:00.605Z,901.9
2023-06-07T05:22:00.588Z,912.8
2023-06-07T05:23:00.643Z,923.7
2023-06-07T05:24:00.637Z,923.7
2023-06-07T05:25:00.595Z,934.9
2023-06-07T05:26:00.608Z,946.1
2023-06-07T05:27:00.616Z,946.1
2023-06-07T05:28:12.353Z,957.5
2023-06-07T05:29:00.600Z,957.5
2023-06-07T05:30:00.614Z,969
2023-06-07T05:31:00.665Z,980.7
2023-06-07T05:32:00.657Z,980.7
2023-06-07T05:33:00.681Z,992.5
2023-06-07T05:34:00.610Z,1004.4
2023-06-07T05:35:00.630Z,1004.4
2023-06-07T05:36:00.607Z,1016.5
2023-06-07T05:37:00.611Z,1028.7
2023-06-07T05:38:00.605Z,1028.7
2023-06-07T05:39:00.612Z,1041.1
2023-06-07T05:40:00.606Z,1053.6
2023-06-07T05:41:00.606Z,1053.6
2023-06-07T05:42:00.639Z,1053.6
2023-06-07T05:43:00.623Z,1066.3
2023-06-07T05:44:00.624Z,1079.1
2023-06-07T05:45:00.625Z,1079.1
2023-06-07T05:46:00.623Z,1092.1
2023-06-07T05:47:00.673Z,1105.3
2023-06-07T05:48:00.656Z,1118.6
2023-06-07T05:49:00.619Z,1132
2023-06-07T05:50:00.632Z,1132
2023-06-07T05:51:00.617Z,1132
2023-06-07T05:52:00.624Z,1145.6
2023-06-07T05:53:00.646Z,1145.6
2023-06-07T05:54:00.622Z,1159.4
2023-06-07T05:55:00.628Z,1159.4
2023-06-07T05:56:00.624Z,1173.3
2023-06-07T05:57:00.658Z,1187.5
2023-06-07T05:58:00.655Z,1187.5
2023-06-07T05:59:00.638Z,1201.7
2023-06-07T06:00:00.634Z,1201.7
2023-06-07T06:01:00.645Z,1216.2
2023-06-07T06:02:00.655Z,1216.2
2023-06-07T06:03:00.695Z,1230.8
2023-06-07T06:04:00.635Z,1230.8
2023-06-07T06:05:00.666Z,1245.7
2023-06-07T06:06:00.632Z,1245.7
2023-06-07T06:07:00.654Z,1245.7
2023-06-07T06:08:00.673Z,1260.7
2023-06-07T06:09:00.637Z,1275.8
2023-06-07T06:10:00.646Z,1275.8
2023-06-07T06:11:00.637Z,1275.8
2023-06-07T06:12:00.663Z,1291.2
2023-06-07T06:13:00.640Z,1291.2
2023-06-07T06:14:00.657Z,1306.7
2023-06-07T06:15:00.641Z,1306.7
2023-06-07T06:16:00.671Z,1322.4
2023-06-07T06:17:00.716Z,1338.3
2023-06-07T06:18:00.675Z,1338.3
2023-06-07T06:19:00.648Z,1354.4
2023-06-07T06:20:00.677Z,1354.4
2023-06-07T06:21:00.657Z,1370.7
2023-06-07T06:22:00.651Z,1370.7
2023-06-07T06:23:00.647Z,1387.2
2023-06-07T06:24:00.683Z,1387.2
2023-06-07T06:25:00.659Z,1387.2
2023-06-07T06:26:00.942Z,1403.9
2023-06-07T06:27:00.672Z,1403.9
2023-06-07T06:28:00.746Z,1420.8
2023-06-07T06:29:00.675Z,1437.9
2023-06-07T06:30:00.713Z,1437.9
2023-06-07T06:31:00.694Z,1472.7
2023-06-07T06:32:00.665Z,1472.7
2023-06-07T06:33:00.768Z,1490.4
2023-06-07T06:34:00.659Z,1490.4
2023-06-07T06:35:00.669Z,1508.3
2023-06-07T06:36:00.702Z,1526.4
2023-06-07T06:37:00.952Z,1544.8
2023-06-07T06:38:00.665Z,1563.4
2023-06-07T06:39:00.671Z,1582.3
2023-06-07T06:40:00.682Z,1601.3
2023-06-07T06:41:00.683Z,1601.3
2023-06-07T06:42:00.711Z,1601.3
2023-06-07T06:43:00.677Z,1620.5
2023-06-07T06:44:00.665Z,1620.5
2023-06-07T06:45:00.672Z,1659.7
2023-06-07T06:46:00.693Z,1659.7
2023-06-07T06:47:00.797Z,1659.7
2023-06-07T06:48:00.812Z,1679.7
2023-06-07T06:49:11.938Z,1679.7
2023-06-07T06:50:00.708Z,1699.9
2023-06-07T06:51:00.680Z,1699.9
2023-06-07T06:52:00.701Z,1699.9
2023-06-07T06:53:00.711Z,1720.4
2023-06-07T06:54:00.692Z,1720.4
2023-06-07T06:55:00.697Z,1741
2023-06-07T06:56:00.684Z,1741
2023-06-07T06:57:00.707Z,1741
2023-06-07T06:58:01.685Z,1741
2023-06-07T06:59:00.691Z,1762
2023-06-07T07:00:00.715Z,1762
2023-06-07T07:01:00.695Z,1762
2023-06-07T07:02:00.734Z,1804.7
2023-06-07T07:03:00.706Z,1783.3
2023-06-07T07:04:00.806Z,1804.7
2023-06-07T07:05:00.702Z,1804.7
2023-06-07T07:06:00.697Z,1804.7
2023-06-07T07:07:00.689Z,1826.4
2023-06-07T07:08:00.713Z,1826.4
2023-06-07T07:09:00.703Z,1826.4
2023-06-07T07:10:00.710Z,1826.4
2023-06-07T07:11:00.719Z,1848.4
2023-06-07T07:12:00.714Z,1848.4
2023-06-07T07:13:00.709Z,1848.4
2023-06-07T07:14:00.721Z,1870.6
2023-06-07T07:15:00.716Z,1870.6
2023-06-07T07:16:00.744Z,1893.1
2023-06-07T07:17:00.743Z,1915.9
2023-06-07T07:18:00.811Z,1938.9
2023-06-07T07:19:00.725Z,1962.2
2023-06-07T07:20:00.906Z,1962.2
2023-06-07T07:21:00.737Z,1985.8
2023-06-07T07:22:00.752Z,2009.8
2023-06-07T07:23:00.713Z,2009.8
2023-06-07T07:24:00.872Z,2034
2023-06-07T07:25:00.734Z,2034
2023-06-07T07:26:00.721Z,2058.4
2023-06-07T07:27:00.725Z,2083.2
2023-06-07T07:28:00.722Z,2083.2
2023-06-07T07:29:00.731Z,2108.2
2023-06-07T07:30:00.729Z,2133.6
2023-06-07T07:31:00.723Z,2159.2
2023-06-07T07:32:00.732Z,2159.2
2023-06-07T07:33:00.774Z,2211.5
2023-06-07T07:34:00.808Z,2211.5
2023-06-07T07:35:00.766Z,2238.1
2023-06-07T07:36:00.737Z,2265.1
2023-06-07T07:37:00.728Z,2265.1
2023-06-07T07:38:01.774Z,2319.9
2023-06-07T07:39:00.739Z,2319.9
2023-06-07T07:40:00.782Z,2347.8
2023-06-07T07:41:00.751Z,2404.6
2023-06-07T07:42:00.733Z,2404.6
2023-06-07T07:43:00.737Z,2404.6
2023-06-07T07:44:00.743Z,2433.5
2023-06-07T07:45:00.735Z,2433.5
2023-06-07T07:46:00.776Z,2462.8
2023-06-07T07:47:00.746Z,2462.8
2023-06-07T07:48:00.892Z,2492.4
2023-06-07T07:49:00.744Z,2522.4
2023-06-07T07:50:00.775Z,2522.4
2023-06-07T07:51:00.754Z,2552.8
2023-06-07T07:52:00.753Z,2552.8
2023-06-07T07:53:00.746Z,2552.8
2023-06-07T07:54:00.745Z,2583.5
2023-06-07T07:55:00.745Z,2583.5
2023-06-07T07:56:00.746Z,2614.6
2023-06-07T07:57:00.767Z,2614.6
2023-06-07T07:58:00.752Z,2646
2023-06-07T07:59:00.752Z,2646
2023-06-07T08:00:00.773Z,2677.9
2023-06-07T08:01:00.758Z,2677.9
2023-06-07T08:02:00.760Z,2677.9
2023-06-07T08:03:00.910Z,2677.9
2023-06-07T08:04:00.927Z,2710.1
2023-06-07T08:05:00.788Z,2742.6
2023-06-07T08:06:00.993Z,2742.6
2023-06-07T08:07:00.766Z,2742.6
2023-06-07T08:08:00.777Z,2742.6
2023-06-07T08:09:00.759Z,2742.6
2023-06-07T08:10:00.801Z,2742.6
2023-06-07T08:11:00.774Z,2775.6
2023-06-07T08:12:00.773Z,2775.6
2023-06-07T08:13:00.772Z,2809
2023-06-07T08:14:00.767Z,2775.6
2023-06-07T08:15:00.748Z,2809
2023-06-07T08:16:00.790Z,2842.8
2023-06-07T08:17:00.712Z,2842.8
2023-06-07T08:18:00.713Z,2842.8
2023-06-07T08:19:00.677Z,2842.8
2023-06-07T08:20:00.745Z,2842.8
2023-06-07T08:21:00.589Z,2842.8
2023-06-07T08:22:00.564Z,2877.1
2023-06-07T08:23:00.517Z,2877.1
2023-06-07T08:24:00.571Z,2877.1
2023-06-07T08:25:00.500Z,2877.1
2023-06-07T08:26:00.435Z,2911.7
2023-06-07T08:27:00.397Z,2911.7
2023-06-07T08:28:00.367Z,2911.7
2023-06-07T08:29:00.388Z,2946.7
2023-06-07T08:30:00.379Z,2946.7
2023-06-07T08:31:00.426Z,2911.7
2023-06-07T08:32:00.419Z,2946.7
2023-06-07T08:33:00.383Z,2946.7
2023-06-07T08:34:00.413Z,2946.7
2023-06-07T08:35:00.376Z,2946.7
2023-06-07T08:36:00.377Z,2946.7
2023-06-07T08:37:00.359Z,2982.2
2023-06-07T08:38:00.366Z,2982.2
2023-06-07T08:39:00.372Z,2982.2
2023-06-07T08:40:00.381Z,2946.7
2023-06-07T08:41:00.385Z,2982.2
2023-06-07T08:42:00.369Z,2982.2
2023-06-07T08:43:00.401Z,2982.2
2023-06-07T08:44:00.371Z,2982.2
2023-06-07T08:45:00.395Z,3018
2023-06-07T08:46:00.407Z,2946.7
2023-06-07T08:47:00.366Z,2982.2
2023-06-07T08:48:00.461Z,2982.2
2023-06-07T08:49:00.374Z,2982.2
2023-06-07T08:50:00.401Z,2982.2
2023-06-07T08:51:00.383Z,2982.2
2023-06-07T08:52:14.832Z,2982.2
2023-06-07T08:53:00.387Z,2982.2
2023-06-07T08:54:00.394Z,2982.2
2023-06-07T08:55:00.478Z,2982.2
2023-06-07T08:56:00.386Z,2982.2
2023-06-07T08:57:00.435Z,2982.2
2023-06-07T08:58:00.384Z,2982.2
2023-06-07T08:59:00.384Z,2982.2
2023-06-07T09:00:00.415Z,2982.2
2023-06-07T09:01:00.415Z,3018
2023-06-07T09:02:00.426Z,3018
2023-06-07T09:03:00.510Z,2982.2
2023-06-07T09:04:00.501Z,2982.2
2023-06-07T09:05:00.400Z,2982.2
2023-06-07T09:06:00.400Z,2982.2
2023-06-07T09:07:00.389Z,2982.2
2023-06-07T09:08:00.399Z,2982.2
2023-06-07T09:09:00.394Z,3018
2023-06-07T09:10:00.414Z,3018
2023-06-07T09:11:00.430Z,3018
2023-06-07T09:12:00.396Z,2982.2
2023-06-07T09:13:00.394Z,3018
2023-06-07T09:14:00.430Z,3018
2023-06-07T09:15:00.403Z,3018
2023-06-07T09:16:00.427Z,3018
2023-06-07T09:17:00.536Z,3018
2023-06-07T09:18:00.896Z,3018
2023-06-07T09:19:00.399Z,3018
2023-06-07T09:20:00.436Z,3054.3
2023-06-07T09:21:00.408Z,3054.3
2023-06-07T09:22:00.412Z,3018
2023-06-07T09:23:00.412Z,3018
2023-06-07T09:24:00.507Z,3054.3
2023-06-07T09:25:00.420Z,3054.3
2023-06-07T09:26:00.420Z,3054.3
2023-06-07T09:27:00.428Z,3091.1
2023-06-07T09:28:00.424Z,3091.1
2023-06-07T09:29:00.421Z,3091.1
2023-06-07T09:30:00.503Z,3091.1
2023-06-07T09:31:00.440Z,3091.1
2023-06-07T09:32:00.563Z,3128.2
2023-06-07T09:33:00.441Z,3165.8
2023-06-07T09:34:00.443Z,3165.8
2023-06-07T09:35:00.426Z,3165.8
2023-06-07T09:36:00.468Z,3165.8
2023-06-07T09:37:00.584Z,3165.8
2023-06-07T09:38:00.488Z,3165.8
2023-06-07T09:39:00.431Z,3165.8
2023-06-07T09:40:00.492Z,3165.8
2023-06-07T09:41:03.072Z,3128.2
2023-06-07T09:42:00.471Z,3128.2
2023-06-07T09:43:00.637Z,3128.2
2023-06-07T09:44:00.438Z,3128.2
2023-06-07T09:45:00.496Z,3128.2
2023-06-07T09:46:00.462Z,3165.8
2023-06-07T09:47:04.116Z,3165.8
2023-06-07T09:48:00.483Z,3165.8
2023-06-07T09:49:00.449Z,3165.8
2023-06-07T09:50:00.447Z,3165.8
2023-06-07T09:51:00.468Z,3165.8
2023-06-07T09:52:00.467Z,3165.8
2023-06-07T09:53:00.478Z,3204.1
2023-06-07T09:54:00.436Z,3204.1
2023-06-07T09:55:00.457Z,3242.6
2023-06-07T09:56:00.451Z,3281.6
2023-06-07T09:57:00.459Z,3281.6
2023-06-07T09:58:00.483Z,3281.6
2023-06-07T09:59:00.452Z,3281.6
2023-06-07T10:00:00.620Z,3321.1
2023-06-07T10:01:00.491Z,1893.1
2023-06-07T10:02:00.494Z,3204.1
2023-06-07T10:03:00.505Z,1826.4
2023-06-07T10:04:00.499Z,1720.4
2023-06-07T10:05:00.466Z,1826.4
2023-06-07T10:06:00.469Z,3204.1
2023-06-07T10:07:00.457Z,3242.6
2023-06-07T10:08:00.481Z,3281.6
2023-06-07T10:09:00.459Z,3281.6
2023-06-07T10:10:00.476Z,3321.1
2023-06-07T10:11:00.475Z,3361
2023-06-07T10:12:00.570Z,3401.4
2023-06-07T10:13:00.485Z,3442.3
2023-06-07T10:14:00.493Z,3483.7
2023-06-07T10:15:00.503Z,3568
2023-06-07T10:16:00.570Z,3568
2023-06-07T10:17:00.491Z,3568
2023-06-07T10:18:00.580Z,3568
2023-06-07T10:19:00.467Z,3611.1
2023-06-07T10:20:00.538Z,3654.5
2023-06-07T10:21:00.552Z,3698.5
2023-06-07T10:22:00.469Z,3568
2023-06-07T10:23:00.626Z,3568
2023-06-07T10:24:00.559Z,3654.5
2023-06-07T10:25:00.551Z,3742.9
2023-06-07T10:26:00.479Z,3742.9
2023-06-07T10:27:00.475Z,3788
2023-06-07T10:28:00.493Z,3833.5
2023-06-07T10:29:00.480Z,3788
2023-06-07T10:30:00.499Z,3742.9
2023-06-07T10:31:00.479Z,3788
2023-06-07T10:32:00.539Z,3926.3
2023-06-07T10:33:00.492Z,3973.5
2023-06-07T10:34:00.472Z,3973.5
2023-06-07T10:35:00.509Z,3926.3
2023-06-07T10:36:00.490Z,3973.5
2023-06-07T10:37:00.479Z,4021.3
2023-06-07T10:38:00.482Z,3973.5
2023-06-07T10:39:00.485Z,4021.3
2023-06-07T10:40:00.532Z,4021.3
2023-06-07T10:41:00.494Z,3973.5
2023-06-07T10:42:00.548Z,3926.3
2023-06-07T10:43:00.522Z,3788
2023-06-07T10:44:00.507Z,3742.9
2023-06-07T10:45:00.509Z,3742.9
2023-06-07T10:46:00.601Z,3742.9
2023-06-07T10:47:00.578Z,3742.9
2023-06-07T10:48:00.530Z,3742.9
2023-06-07T10:49:00.535Z,3788
2023-06-07T10:50:00.487Z,3833.5
2023-06-07T10:51:00.495Z,3833.5
2023-06-07T10:52:00.780Z,3879.6
2023-06-07T10:53:00.497Z,3926.3
2023-06-07T10:54:00.531Z,4021.3
2023-06-07T10:55:00.528Z,3973.5
2023-06-07T10:56:00.503Z,4021.3
2023-06-07T10:57:00.512Z,4021.3
2023-06-07T10:58:00.620Z,4069.8
2023-06-07T10:59:00.502Z,4021.3
2023-06-07T11:00:00.550Z,4069.8
2023-06-07T11:01:00.557Z,4118.8
2023-06-07T11:02:00.579Z,4168.3
2023-06-07T11:03:00.641Z,4168.3
2023-06-07T11:05:00.915Z,4069.8
2023-06-07T11:06:00.746Z,4168.3
2023-06-07T11:07:00.511Z,4269.1
2023-06-07T11:08:00.510Z,4320.5
2023-06-07T11:09:00.513Z,4425
2023-06-07T11:10:00.524Z,4425
2023-06-07T11:11:00.546Z,4532.1
2023-06-07T11:12:00.545Z,4532.1
2023-06-07T11:13:00.518Z,4425
2023-06-07T11:14:00.583Z,4320.5
2023-06-07T11:15:00.521Z,4269.1
2023-06-07T11:16:00.545Z,4118.8
2023-06-07T11:17:00.561Z,4021.3
2023-06-07T11:18:00.757Z,4021.3
2023-06-07T11:19:00.575Z,4021.3
2023-06-07T11:20:00.525Z,4021.3
2023-06-07T11:21:00.546Z,4118.8
2023-06-07T11:22:00.561Z,4118.8
2023-06-07T11:23:00.560Z,4168.3
2023-06-07T11:24:00.650Z,4269.1
2023-06-07T11:25:00.528Z,4425
2023-06-07T11:26:00.640Z,4425
2023-06-07T11:27:00.546Z,4425
2023-06-07T11:28:00.533Z,4425
2023-06-07T11:29:00.562Z,4320.5
2023-06-07T11:30:00.558Z,4320.5
2023-06-07T11:31:00.580Z,4218.4
2023-06-07T11:32:00.804Z,4586.8
2023-06-07T11:33:00.654Z,4425
2023-06-07T11:34:00.564Z,4320.5
2023-06-07T11:35:00.545Z,4218.4
2023-06-07T11:36:00.549Z,4218.4
2023-06-07T11:37:00.544Z,4218.4
2023-06-07T11:38:00.549Z,4218.4
2023-06-07T11:39:00.546Z,4320.5
2023-06-07T11:40:00.557Z,4320.5
2023-06-07T11:41:00.586Z,4372.4
2023-06-07T11:42:00.556Z,4425
2023-06-07T11:43:00.572Z,4425
2023-06-07T11:44:00.590Z,4372.4
2023-06-07T11:45:00.557Z,4425
2023-06-07T11:46:00.580Z,4586.8
2023-06-07T11:47:00.599Z,4586.8
2023-06-07T11:48:00.622Z,4478.2
2023-06-07T11:49:00.619Z,4425
2023-06-07T11:50:00.570Z,4425
2023-06-07T11:51:00.589Z,4425
2023-06-07T11:52:00.584Z,4586.8
2023-06-07T11:53:00.563Z,4642
2023-06-07T11:54:00.565Z,4642
2023-06-07T11:55:00.582Z,4586.8
2023-06-07T11:56:00.581Z,4532.1
2023-06-07T11:57:00.581Z,4642
2023-06-07T11:58:00.573Z,4754.3
2023-06-07T11:59:00.566Z,4754.3
2023-06-07T12:00:00.589Z,4754.3
2023-06-07T12:01:00.631Z,4987.1
2023-06-07T12:02:00.601Z,5107.8
2023-06-07T12:03:00.785Z,5169.5
2023-06-07T12:04:00.614Z,4987.1
2023-06-07T12:05:00.645Z,4642
2023-06-07T12:06:00.564Z,4642
2023-06-07T12:07:00.569Z,4642
2023-06-07T12:08:00.570Z,4642
2023-06-07T12:09:00.571Z,4697.8
2023-06-07T12:10:00.573Z,4754.3
2023-06-07T12:11:00.603Z,4754.3
2023-06-07T12:12:00.577Z,4754.3
2023-06-07T12:13:00.641Z,4754.3
2023-06-07T12:14:00.798Z,4869.3
2023-06-07T12:15:00.589Z,4927.9
2023-06-07T12:16:00.616Z,4987.1
2023-06-07T12:17:00.589Z,5169.5
2023-06-07T12:18:00.611Z,5487.9
2023-06-07T12:19:00.583Z,5756.7
2023-06-07T12:20:00.581Z,5896.2
2023-06-07T12:21:00.585Z,5896.2
2023-06-07T12:22:00.584Z,6111.5
2023-06-07T12:23:00.605Z,6410.8
2023-06-07T12:24:00.615Z,6487.9
2023-06-07T12:25:00.586Z,6111.5
2023-06-07T12:26:00.653Z,5553.9
2023-06-07T12:27:00.588Z,5294.6
2023-06-07T12:28:00.596Z,5231.6
2023-06-07T12:29:00.610Z,5231.6
2023-06-07T12:30:00.593Z,5358.2
2023-06-07T12:31:00.609Z,5553.9
2023-06-07T12:32:00.601Z,5826.2
2023-06-07T12:33:00.698Z,6185
2023-06-07T12:34:00.649Z,6410.8
2023-06-07T12:35:00.606Z,6334.7
2023-06-07T12:36:00.607Z,6487.9
2023-06-07T12:37:00.603Z,5231.6
2023-06-07T12:38:00.610Z,6038.9
2023-06-07T12:39:00.613Z,6487.9
2023-06-07T12:40:00.614Z,7489.4
2023-06-07T12:41:00.676Z,8440.8
2023-06-07T12:42:00.611Z,8340.5
2023-06-07T12:43:00.614Z,6566.3
2023-06-07T12:44:00.644Z,7579.5
2023-06-07T12:45:00.629Z,6259.4
2023-06-07T12:46:00.630Z,5231.6
2023-06-07T12:47:00.763Z,5107.8
2023-06-07T12:48:00.690Z,6725.2
2023-06-07T12:49:00.620Z,6185
2023-06-07T12:50:00.708Z,7489.4
2023-06-07T12:51:00.631Z,7670.6
2023-06-07T12:52:00.634Z,6970.7
2023-06-07T12:53:00.625Z,7950.7
2023-06-07T12:54:00.639Z,8046.3
2023-06-07T12:55:00.626Z,8749
2023-06-07T12:56:00.632Z,8854.2
2023-06-07T12:57:00.758Z,8854.2